createdAt,value
2022-10-09T00:00:34.464Z,69.89
2022-10-09T00:03:02.707Z,69.35
2022-10-09T00:05:30.447Z,69.49
2022-10-09T00:07:59.477Z,69.41
2022-10-09T00:10:27.350Z,69.37
2022-10-09T00:12:54.992Z,66.72
2022-10-09T00:15:22.589Z,66.29
2022-10-09T00:17:50.365Z,66.66
2022-10-09T00:20:18.074Z,67.58
2022-10-09T00:22:45.798Z,68.67
2022-10-09T00:25:15.192Z,69.04
2022-10-09T00:27:42.767Z,69.65
2022-10-09T00:30:11.235Z,70.00
2022-10-09T00:32:38.851Z,70.49
2022-10-09T00:35:07.193Z,70.48
2022-10-09T00:37:34.790Z,70.51
2022-10-09T00:40:02.608Z,70.51
2022-10-09T00:45:01.305Z,71.05
2022-10-09T00:47:32.293Z,70.49
2022-10-09T00:50:04.510Z,70.24
2022-10-09T00:52:33.489Z,70.71
2022-10-09T00:55:03.435Z,70.90
2022-10-09T00:57:34.383Z,70.92
2022-10-09T01:00:06.417Z,71.21
2022-10-09T01:02:34.466Z,70.92
2022-10-09T01:05:02.065Z,70.31
2022-10-09T01:07:39.949Z,70.83
2022-10-09T01:10:18.674Z,70.37
2022-10-09T01:12:57.707Z,70.50
2022-10-09T01:15:30.819Z,70.43
2022-10-09T01:18:07.106Z,70.87
2022-10-09T01:20:45.627Z,70.90
2022-10-09T01:23:39.282Z,70.80
2022-10-09T01:26:18.390Z,71.14
2022-10-09T01:28:50.009Z,71.35
2022-10-09T01:31:18.964Z,71.03
2022-10-09T01:33:47.488Z,71.00
2022-10-09T01:36:16.805Z,71.29
2022-10-09T01:38:45.898Z,71.26
2022-10-09T01:41:13.771Z,71.50
2022-10-09T01:43:41.674Z,71.67
2022-10-09T01:46:22.972Z,71.52
2022-10-09T01:48:58.370Z,71.94
2022-10-09T01:51:31.531Z,71.57
2022-10-09T01:54:07.170Z,71.67
2022-10-09T01:56:38.810Z,71.68
2022-10-09T01:59:15.838Z,72.06
2022-10-09T02:01:47.872Z,72.21
2022-10-09T02:04:17.934Z,72.17
2022-10-09T02:06:47.863Z,72.00
2022-10-09T02:09:18.585Z,72.16
2022-10-09T02:11:52.204Z,72.21
2022-10-09T02:14:19.857Z,72.24
2022-10-09T02:16:55.280Z,71.74
2022-10-09T02:19:28.009Z,71.91
2022-10-09T02:21:59.262Z,71.79
2022-10-09T02:24:27.651Z,71.98
2022-10-09T02:26:57.464Z,71.86
2022-10-09T02:29:25.216Z,71.93
2022-10-09T02:31:54.238Z,72.25
2022-10-09T02:34:22.516Z,71.99
2022-10-09T02:36:50.293Z,72.17
2022-10-09T02:39:18.751Z,72.19
2022-10-09T02:41:46.370Z,72.01
2022-10-09T02:44:13.938Z,72.13
2022-10-09T02:46:41.725Z,71.52
2022-10-09T02:49:10.806Z,71.51
2022-10-09T02:51:38.437Z,71.75
2022-10-09T02:54:06.448Z,71.76
2022-10-09T02:56:38.636Z,71.90
2022-10-09T02:59:06.896Z,71.55
2022-10-09T03:01:34.679Z,69.57
2022-10-09T03:04:02.450Z,69.53
2022-10-09T03:06:31.785Z,69.81
2022-10-09T03:08:59.526Z,70.67
2022-10-09T03:11:27.773Z,71.22
2022-10-09T03:13:55.498Z,70.71
2022-10-09T03:16:25.231Z,71.04
2022-10-09T03:18:54.383Z,71.56
2022-10-09T03:21:23.672Z,71.79
2022-10-09T03:23:53.412Z,71.83
2022-10-09T03:26:22.991Z,72.19
2022-10-09T03:28:51.891Z,71.33
2022-10-09T03:34:09.158Z,71.72
2022-10-09T03:36:36.723Z,71.82
2022-10-09T03:39:05.695Z,71.77
2022-10-09T03:41:33.296Z,72.08
2022-10-09T03:44:00.922Z,72.12
2022-10-09T03:46:28.959Z,72.09
2022-10-09T03:48:56.571Z,71.85
2022-10-09T03:51:24.523Z,71.79
2022-10-09T03:53:52.109Z,71.85
2022-10-09T03:56:21.088Z,72.03
2022-10-09T03:58:48.621Z,71.77
2022-10-09T04:01:16.281Z,71.56
2022-10-09T04:03:43.974Z,71.81
2022-10-09T04:06:12.371Z,71.05
2022-10-09T04:08:39.977Z,71.63
2022-10-09T04:11:07.639Z,71.32
2022-10-09T04:13:36.555Z,71.68
2022-10-09T04:16:04.176Z,71.46
2022-10-09T04:18:31.825Z,70.55
2022-10-09T04:20:59.457Z,70.14
2022-10-09T04:23:28.194Z,69.97
2022-10-09T04:25:56.831Z,70.50
2022-10-09T04:28:24.515Z,70.71
2022-10-09T04:30:53.617Z,70.95
2022-10-09T04:33:21.537Z,71.11
2022-10-09T04:35:52.421Z,71.10
2022-10-09T04:38:20.488Z,71.66
2022-10-09T04:40:57.057Z,71.20
2022-10-09T04:43:24.732Z,71.27
2022-10-09T04:45:54.074Z,70.43
2022-10-09T04:48:21.856Z,70.00
2022-10-09T04:50:49.545Z,70.04
2022-10-09T04:53:17.414Z,70.43
2022-10-09T04:55:45.826Z,70.81
2022-10-09T04:58:14.397Z,70.59
2022-10-09T05:00:43.026Z,70.88
2022-10-09T05:03:12.858Z,71.34
2022-10-09T05:05:40.718Z,71.21
2022-10-09T05:08:08.414Z,71.61
2022-10-09T05:10:36.138Z,71.81
2022-10-09T05:13:04.157Z,71.77
2022-10-09T05:15:32.177Z,71.77
2022-10-09T05:17:59.755Z,71.56
2022-10-09T05:20:28.748Z,71.60
2022-10-09T05:22:56.312Z,71.49
2022-10-09T05:25:23.859Z,71.78
2022-10-09T05:27:51.464Z,71.52
2022-10-09T05:30:19.288Z,71.62
2022-10-09T05:32:47.206Z,71.42
2022-10-09T05:35:15.113Z,71.39
2022-10-09T05:37:46.481Z,71.43
2022-10-09T05:40:14.186Z,71.58
2022-10-09T05:42:41.806Z,71.66
2022-10-09T05:45:11.251Z,71.79
2022-10-09T05:47:38.908Z,71.79
2022-10-09T05:50:07.226Z,71.78
2022-10-09T05:52:36.411Z,71.79
2022-10-09T05:55:09.130Z,71.70
2022-10-09T05:57:36.706Z,71.69
2022-10-09T06:00:05.139Z,71.60
2022-10-09T06:02:33.282Z,72.14
2022-10-09T06:05:00.915Z,71.80
2022-10-09T06:07:28.544Z,72.08
2022-10-09T06:09:56.115Z,71.91
2022-10-09T06:12:25.085Z,71.62
2022-10-09T06:14:52.675Z,71.54
2022-10-09T06:17:20.236Z,71.83
2022-10-09T06:19:47.910Z,71.70
2022-10-09T06:22:15.485Z,72.36
2022-10-09T06:24:43.102Z,71.96
2022-10-09T06:27:13.063Z,72.23
2022-10-09T06:29:42.014Z,71.92
2022-10-09T06:32:09.616Z,71.95
2022-10-09T06:34:37.248Z,72.09
2022-10-09T06:37:04.912Z,72.03
2022-10-09T06:39:32.511Z,72.12
2022-10-09T06:42:00.222Z,71.67
2022-10-09T06:44:27.851Z,72.04
2022-10-09T06:46:56.968Z,71.95
2022-10-09T06:49:24.818Z,71.63
2022-10-09T06:51:52.416Z,71.66
2022-10-09T06:54:20.426Z,71.54
2022-10-09T06:56:48.014Z,71.76
2022-10-09T06:59:15.647Z,71.41
2022-10-09T07:01:43.472Z,71.26
2022-10-09T07:04:15.061Z,71.70
2022-10-09T07:06:44.728Z,71.77
2022-10-09T07:09:14.433Z,71.81
2022-10-09T07:11:45.156Z,72.02
2022-10-09T07:14:15.711Z,72.23
2022-10-09T07:16:44.848Z,72.18
2022-10-09T07:19:20.398Z,72.45
2022-10-09T07:21:49.857Z,72.29
2022-10-09T07:24:21.279Z,72.53
2022-10-09T07:26:49.500Z,72.37
2022-10-09T07:29:19.137Z,72.49
2022-10-09T07:31:46.880Z,72.60
2022-10-09T07:34:15.892Z,72.01
2022-10-09T07:36:45.318Z,72.05
2022-10-09T07:39:13.061Z,72.28
2022-10-09T07:41:45.464Z,72.31
2022-10-09T07:44:21.079Z,72.43
2022-10-09T07:46:56.466Z,72.59
2022-10-09T07:49:28.103Z,72.74
2022-10-09T07:51:55.933Z,72.64
2022-10-09T07:54:23.560Z,72.62
2022-10-09T07:56:54.141Z,72.87
2022-10-09T07:59:21.829Z,72.64
2022-10-09T08:01:51.302Z,72.84
2022-10-09T08:04:18.991Z,73.08
2022-10-09T08:06:47.999Z,72.69
2022-10-09T08:09:15.634Z,72.41
2022-10-09T08:11:43.291Z,72.15
2022-10-09T08:14:18.055Z,71.74
2022-10-09T08:16:47.080Z,72.26
2022-10-09T08:19:14.864Z,72.10
2022-10-09T08:21:42.465Z,72.22
2022-10-09T08:24:13.058Z,72.42
2022-10-09T08:26:40.760Z,72.49
2022-10-09T08:29:08.445Z,72.35
2022-10-09T08:31:36.178Z,71.49
2022-10-09T08:34:04.593Z,71.43
2022-10-09T08:36:33.014Z,71.25
2022-10-09T08:39:00.912Z,71.26
2022-10-09T08:41:43.424Z,71.26
2022-10-09T08:44:21.578Z,71.79
2022-10-09T08:47:07.407Z,71.74
2022-10-09T08:49:45.958Z,71.01
2022-10-09T08:52:22.273Z,71.32
2022-10-09T08:54:50.061Z,72.11
2022-10-09T08:57:19.304Z,71.64
2022-10-09T08:59:47.018Z,71.92
2022-10-09T09:02:33.770Z,71.63
2022-10-09T09:05:14.015Z,71.21
2022-10-09T09:07:53.426Z,70.68
2022-10-09T09:10:31.241Z,70.83
2022-10-09T09:13:15.737Z,71.05
2022-10-09T09:15:48.400Z,71.09
2022-10-09T09:18:33.915Z,70.91
2022-10-09T09:21:11.437Z,70.69
2022-10-09T09:23:43.625Z,70.64
2022-10-09T09:26:14.963Z,70.97
2022-10-09T09:28:44.990Z,70.91
2022-10-09T09:31:20.192Z,69.63
2022-10-09T09:33:57.291Z,69.24
2022-10-09T09:36:27.906Z,68.21
2022-10-09T09:39:49.934Z,68.21
2022-10-09T09:41:44.988Z,67.68
2022-10-09T09:44:16.293Z,67.59
2022-10-09T09:46:47.355Z,67.96
2022-10-09T09:49:19.568Z,68.42
2022-10-09T09:51:49.542Z,68.59
2022-10-09T09:54:19.943Z,67.89
2022-10-09T09:57:11.998Z,66.76
2022-10-09T09:59:43.850Z,67.92
2022-10-09T10:02:15.367Z,68.05
2022-10-09T10:04:55.342Z,67.83
2022-10-09T10:07:30.632Z,67.66
2022-10-09T10:10:14.547Z,68.05
2022-10-09T10:12:42.852Z,68.15
2022-10-09T10:15:24.082Z,68.16
2022-10-09T10:18:00.011Z,67.87
2022-10-09T10:20:28.534Z,68.12
2022-10-09T10:22:58.251Z,68.09
2022-10-09T10:25:28.572Z,68.83
2022-10-09T10:28:01.513Z,68.18
2022-10-09T10:30:32.247Z,68.26
2022-10-09T10:33:08.800Z,68.13
2022-10-09T10:35:39.398Z,66.84
2022-10-09T10:38:14.114Z,67.62
2022-10-09T10:40:48.688Z,67.84
2022-10-09T10:43:30.106Z,67.70
2022-10-09T10:46:08.330Z,67.45
2022-10-09T10:48:41.361Z,67.24
2022-10-09T10:51:31.870Z,67.29
2022-10-09T10:54:09.370Z,67.32
2022-10-09T10:56:43.516Z,66.37
2022-10-09T10:59:29.768Z,66.80
2022-10-09T11:02:48.811Z,65.55
2022-10-09T11:05:31.630Z,66.28
2022-10-09T11:08:10.996Z,66.86
2022-10-09T11:10:48.802Z,66.82
2022-10-09T11:13:23.898Z,67.28
2022-10-09T11:16:02.171Z,66.71
2022-10-09T11:18:43.935Z,66.25
2022-10-09T11:21:30.874Z,65.69
2022-10-09T11:24:13.690Z,66.16
2022-10-09T11:26:49.767Z,65.77
2022-10-09T11:29:22.380Z,65.28
2022-10-09T11:31:55.066Z,65.64
2022-10-09T11:34:31.814Z,64.88
2022-10-09T11:37:02.249Z,65.39
2022-10-09T11:39:31.860Z,65.74
2022-10-09T11:42:00.464Z,64.47
2022-10-09T11:44:39.453Z,64.28
2022-10-09T11:47:18.357Z,63.90
2022-10-09T11:50:01.023Z,64.52
2022-10-09T11:52:37.780Z,64.17
2022-10-09T11:55:17.109Z,64.20
2022-10-09T11:57:44.724Z,64.42
2022-10-09T12:00:13.715Z,64.03
2022-10-09T12:02:42.843Z,63.38
2022-10-09T12:05:35.504Z,63.66
2022-10-09T12:08:18.495Z,62.87
2022-10-09T12:10:53.945Z,62.95
2022-10-09T12:13:45.468Z,64.12
2022-10-09T12:16:32.909Z,64.27
2022-10-09T12:19:03.545Z,63.72
2022-10-09T12:21:39.714Z,63.32
2022-10-09T12:24:08.404Z,63.65
2022-10-09T12:26:36.754Z,63.55
2022-10-09T12:29:05.778Z,64.43
2022-10-09T12:31:37.745Z,65.17
2022-10-09T12:34:14.059Z,65.68
2022-10-09T12:36:43.323Z,66.28
2022-10-09T12:39:14.907Z,66.29
2022-10-09T12:41:45.894Z,66.51
2022-10-09T12:44:27.186Z,66.31
2022-10-09T12:46:55.128Z,66.33
2022-10-09T12:49:25.640Z,65.83
2022-10-09T12:51:56.759Z,65.63
2022-10-09T12:54:25.384Z,66.16
2022-10-09T12:56:54.306Z,66.27
2022-10-09T12:59:24.119Z,66.30
2022-10-09T13:01:56.531Z,66.49
2022-10-09T13:04:30.012Z,64.95
2022-10-09T13:07:00.558Z,65.22
2022-10-09T13:09:34.017Z,64.07
2022-10-09T13:12:07.423Z,64.00
2022-10-09T13:14:37.663Z,64.58
2022-10-09T13:17:05.683Z,65.17
2022-10-09T13:19:35.324Z,65.61
2022-10-09T13:22:22.565Z,65.55
2022-10-09T13:24:53.164Z,63.20
2022-10-09T13:27:21.598Z,63.85
2022-10-09T13:29:49.729Z,64.76
2022-10-09T13:32:18.622Z,63.22
2022-10-09T13:34:47.338Z,62.30
2022-10-09T13:37:17.218Z,62.46
2022-10-09T13:39:46.216Z,62.53
2022-10-09T13:42:16.175Z,62.92
2022-10-09T13:44:43.872Z,63.05
2022-10-09T13:47:11.884Z,63.33
2022-10-09T13:49:39.462Z,63.21
2022-10-09T13:52:07.345Z,62.08
2022-10-09T13:54:34.988Z,63.05
2022-10-09T13:57:04.484Z,63.78
2022-10-09T13:59:32.401Z,63.83
2022-10-09T14:02:00.575Z,64.22
2022-10-09T14:04:28.546Z,64.71
2022-10-09T14:06:56.159Z,65.15
2022-10-09T14:09:24.697Z,63.76
2022-10-09T14:11:52.319Z,63.70
2022-10-09T14:14:22.346Z,62.52
2022-10-09T14:16:50.684Z,63.90
2022-10-09T14:19:18.603Z,64.27
2022-10-09T14:21:47.596Z,64.30
2022-10-09T14:24:15.523Z,64.66
2022-10-09T14:26:44.270Z,65.12
2022-10-09T14:29:13.905Z,64.16
2022-10-09T14:31:42.885Z,65.01
2022-10-09T14:34:13.235Z,64.52
2022-10-09T14:36:41.928Z,65.04
2022-10-09T14:39:09.819Z,64.92
2022-10-09T14:41:38.016Z,64.99
2022-10-09T14:44:06.085Z,65.19
2022-10-09T14:46:37.501Z,64.68
2022-10-09T14:49:08.091Z,65.27
2022-10-09T14:51:37.389Z,63.93
2022-10-09T14:54:05.462Z,63.68
2022-10-09T14:56:33.282Z,63.46
2022-10-09T14:59:01.797Z,63.81
2022-10-09T15:01:30.552Z,63.97
2022-10-09T15:04:00.226Z,64.31
2022-10-09T15:06:29.696Z,64.84
2022-10-09T15:09:03.107Z,64.87
2022-10-09T15:11:33.615Z,65.51
2022-10-09T15:14:01.346Z,66.04
2022-10-09T15:16:28.967Z,65.92
2022-10-09T15:18:57.243Z,65.13
2022-10-09T15:21:26.835Z,65.68
2022-10-09T15:23:56.550Z,66.33
2022-10-09T15:26:25.389Z,64.92
2022-10-09T15:28:53.745Z,64.86
2022-10-09T15:31:24.470Z,65.83
2022-10-09T15:33:52.140Z,64.50
2022-10-09T15:36:19.973Z,64.11
2022-10-09T15:38:48.019Z,64.58
2022-10-09T15:41:25.296Z,65.59
2022-10-09T15:43:56.100Z,65.31
2022-10-09T15:46:24.270Z,65.58
2022-10-09T15:48:52.427Z,65.37
2022-10-09T15:51:20.930Z,66.11
2022-10-09T15:53:50.582Z,65.22
2022-10-09T15:56:20.001Z,65.21
2022-10-09T15:58:49.218Z,65.13
2022-10-09T16:01:18.340Z,65.68
2022-10-09T16:03:46.863Z,66.10
2022-10-09T16:06:18.773Z,65.13
2022-10-09T16:08:47.004Z,65.40
2022-10-09T16:11:19.009Z,65.86
2022-10-09T16:13:51.301Z,65.72
2022-10-09T16:16:20.880Z,65.78
2022-10-09T16:18:49.076Z,64.95
2022-10-09T16:21:18.545Z,65.74
2022-10-09T16:23:46.246Z,65.90
2022-10-09T16:26:15.789Z,66.29
2022-10-09T16:28:44.466Z,66.56
2022-10-09T16:31:20.661Z,66.44
2022-10-09T16:33:48.759Z,66.85
2022-10-09T16:36:16.820Z,66.92
2022-10-09T16:38:44.775Z,66.89
2022-10-09T16:41:14.755Z,67.13
2022-10-09T16:43:42.355Z,66.70
2022-10-09T16:46:11.943Z,66.50
2022-10-09T16:48:40.916Z,66.38
2022-10-09T16:51:11.001Z,66.38
2022-10-09T16:53:39.099Z,66.02
2022-10-09T16:56:11.525Z,66.40
2022-10-09T16:58:39.617Z,66.44
2022-10-09T17:01:10.023Z,66.52
2022-10-09T17:03:40.216Z,66.49
2022-10-09T17:06:12.150Z,66.59
2022-10-09T17:08:40.404Z,66.29
2022-10-09T17:11:09.269Z,66.23
2022-10-09T17:13:37.741Z,66.08
2022-10-09T17:16:07.005Z,66.24
2022-10-09T17:18:35.203Z,66.45
2022-10-09T17:21:03.507Z,66.42
2022-10-09T17:23:33.212Z,66.68
2022-10-09T17:26:05.765Z,66.38
2022-10-09T17:28:34.323Z,66.23
2022-10-09T17:31:03.984Z,66.29
2022-10-09T17:33:31.859Z,66.53
2022-10-09T17:35:59.769Z,66.56
2022-10-09T17:38:27.389Z,66.43
2022-10-09T17:40:56.350Z,66.54
2022-10-09T17:43:23.921Z,66.86
2022-10-09T17:45:51.919Z,66.62
2022-10-09T17:48:19.565Z,66.72
2022-10-09T17:50:52.665Z,66.66
2022-10-09T17:53:22.556Z,66.71
2022-10-09T17:55:50.566Z,66.74
2022-10-09T17:58:20.764Z,66.74
2022-10-09T18:00:48.843Z,67.00
2022-10-09T18:03:17.305Z,66.57
2022-10-09T18:05:46.134Z,66.98
2022-10-09T18:08:15.296Z,66.98
2022-10-09T18:10:42.925Z,67.26
2022-10-09T18:13:11.513Z,67.27
2022-10-09T18:15:42.591Z,67.23
2022-10-09T18:18:11.777Z,67.44
2022-10-09T18:20:41.359Z,67.30
2022-10-09T18:23:09.597Z,67.15
2022-10-09T18:25:42.611Z,67.16
2022-10-09T18:28:10.971Z,67.30
2022-10-09T18:30:45.886Z,67.17
2022-10-09T18:33:13.616Z,67.34
2022-10-09T18:35:41.434Z,67.32
2022-10-09T18:38:10.319Z,67.36
2022-10-09T18:40:44.493Z,67.29
2022-10-09T18:43:13.111Z,67.66
2022-10-09T18:45:46.949Z,67.45
2022-10-09T18:48:15.362Z,67.47
2022-10-09T18:50:49.827Z,67.60
2022-10-09T18:53:17.640Z,67.56
2022-10-09T18:55:45.634Z,67.79
2022-10-09T18:58:13.718Z,67.75
2022-10-09T19:00:43.473Z,67.49
2022-10-09T19:03:11.116Z,67.55
2022-10-09T19:05:38.777Z,67.43
2022-10-09T19:08:06.559Z,67.62
2022-10-09T19:10:34.123Z,67.54
2022-10-09T19:13:01.698Z,67.05
2022-10-09T19:15:29.698Z,67.01
2022-10-09T19:17:58.681Z,66.86
2022-10-09T19:20:28.829Z,67.19
2022-10-09T19:22:56.435Z,66.58
2022-10-09T19:25:24.110Z,67.15
2022-10-09T19:27:52.219Z,67.26
2022-10-09T19:30:20.327Z,67.17
2022-10-09T19:32:49.753Z,67.30
2022-10-09T19:35:19.198Z,67.64
2022-10-09T19:37:47.056Z,67.87
2022-10-09T19:40:14.814Z,67.63
2022-10-09T19:42:42.435Z,67.88
2022-10-09T19:45:10.610Z,67.63
2022-10-09T19:47:38.166Z,67.36
2022-10-09T19:50:06.375Z,67.37
2022-10-09T19:52:36.454Z,67.95
2022-10-09T19:55:04.212Z,67.47
2022-10-09T19:57:31.803Z,67.65
2022-10-09T19:59:59.811Z,67.49
2022-10-09T20:02:27.369Z,67.35
2022-10-09T20:04:54.973Z,67.19
2022-10-09T20:07:22.569Z,67.29
2022-10-09T20:09:51.523Z,66.43
2022-10-09T20:12:19.942Z,66.51
2022-10-09T20:14:50.102Z,67.13
2022-10-09T20:17:20.764Z,65.96
2022-10-09T20:19:48.573Z,66.73
2022-10-09T20:22:16.248Z,65.76
2022-10-09T20:24:43.906Z,65.75
2022-10-09T20:27:12.905Z,65.75
2022-10-09T20:29:40.547Z,65.53
2022-10-09T20:32:08.672Z,65.78
2022-10-09T20:34:36.230Z,65.79
2022-10-09T20:37:04.090Z,66.25
2022-10-09T20:39:31.703Z,66.06
2022-10-09T20:41:59.342Z,66.17
2022-10-09T20:44:28.392Z,66.59
2022-10-09T20:46:56.825Z,67.02
2022-10-09T20:49:24.483Z,67.19
2022-10-09T20:51:52.632Z,67.29
2022-10-09T20:54:22.324Z,67.25
2022-10-09T20:56:50.983Z,66.87
2022-10-09T20:59:19.386Z,67.20
2022-10-09T21:01:48.682Z,67.25
2022-10-09T21:04:16.298Z,67.67
2022-10-09T21:06:44.475Z,67.63
2022-10-09T21:09:12.070Z,67.61
2022-10-09T21:11:41.397Z,67.62
2022-10-09T21:14:10.761Z,67.97
2022-10-09T21:16:38.643Z,67.43
2022-10-09T21:19:07.624Z,67.43
2022-10-09T21:21:35.642Z,67.67
2022-10-09T21:24:03.715Z,67.58
2022-10-09T21:26:35.237Z,65.72
2022-10-09T21:29:03.598Z,64.97
2022-10-09T21:31:32.673Z,65.33
2022-10-09T21:34:01.726Z,66.17
2022-10-09T21:36:41.070Z,66.10
2022-10-09T21:39:19.842Z,66.44
2022-10-09T21:41:47.582Z,66.79
2022-10-09T21:44:15.162Z,67.03
2022-10-09T21:46:43.007Z,67.71
2022-10-09T21:49:17.617Z,67.82
2022-10-09T21:51:46.605Z,68.45
2022-10-09T21:54:14.222Z,68.57
2022-10-09T21:56:41.903Z,68.65
2022-10-09T21:59:09.954Z,68.84
2022-10-09T22:01:38.118Z,68.80
2022-10-09T22:04:12.302Z,69.05
2022-10-09T22:06:41.066Z,69.28
2022-10-09T22:09:10.191Z,69.33
2022-10-09T22:11:38.263Z,69.75
2022-10-09T22:14:06.595Z,69.18
2022-10-09T22:16:34.467Z,68.96
2022-10-09T22:19:02.130Z,69.28
2022-10-09T22:21:30.096Z,69.53
2022-10-09T22:24:00.675Z,69.36
2022-10-09T22:26:29.652Z,69.59
2022-10-09T22:28:57.445Z,69.51
2022-10-09T22:31:27.348Z,69.66
2022-10-09T22:33:57.629Z,70.32
2022-10-09T22:36:27.334Z,70.28
2022-10-09T22:38:56.445Z,70.35
2022-10-09T22:41:25.114Z,70.15
2022-10-09T22:43:55.847Z,70.35
2022-10-09T22:46:25.592Z,70.91
2022-10-09T22:48:53.859Z,71.25
2022-10-09T22:51:23.367Z,71.74
2022-10-09T22:53:51.219Z,71.69
2022-10-09T22:56:20.849Z,71.47
2022-10-09T22:58:49.262Z,70.57
2022-10-09T23:01:29.907Z,69.61
2022-10-09T23:03:58.002Z,69.40
2022-10-09T23:06:25.680Z,70.38
2022-10-09T23:08:53.645Z,70.07
2022-10-09T23:11:22.237Z,70.53
2022-10-09T23:13:54.796Z,70.20
2022-10-09T23:16:24.677Z,70.06
2022-10-09T23:18:52.616Z,70.00
2022-10-09T23:21:22.441Z,70.19
2022-10-09T23:23:51.908Z,70.59
2022-10-09T23:26:21.835Z,70.83
2022-10-09T23:28:50.377Z,70.84
2022-10-09T23:31:18.450Z,71.32
2022-10-09T23:33:48.280Z,71.68
2022-10-09T23:36:18.137Z,71.71
2022-10-09T23:38:46.233Z,72.32
2022-10-09T23:41:15.042Z,72.93
2022-10-09T23:43:44.281Z,73.04
2022-10-09T23:46:14.017Z,73.32
2022-10-09T23:48:42.360Z,73.46
2022-10-09T23:51:12.927Z,73.45
2022-10-09T23:53:40.770Z,73.05
2022-10-09T23:56:17.114Z,72.77
2022-10-09T23:58:44.855Z,72.80
